Daybreak2
, South Jordan
Last Weather Update:07/30/2011 11:00:00 PM
Date
ETo
ETc
Rain
Irrigation
Req
Temp
Max
Temp
Min
Temp
Avg
Avg RH
Avg Wind
Avg Solar
inches
inches
incehs
inches
F
F
F
%
%
watts/m2
06/01/2011 0.29" 0.23" 0.00" 0.23" 77.6° 56.8° 66.6° 21.7% 9.9 MPH 254.9w/m2
06/02/2011 0.20" 0.16" 0.02" 0.14" 66.2° 45.0° 52.5° 40.5% 10.5 MPH 307.0w/m2
06/03/2011 0.18" 0.14" 0.00" 0.14" 61.3° 40.1° 51.2° 50.8% 5.3 MPH 304.9w/m2
06/04/2011 0.22" 0.18" 0.00" 0.18" 77.2° 45.3° 60.8° 39.7% 5.8 MPH 295.3w/m2
06/05/2011 0.32" 0.25" 0.00" 0.25" 85.9° 54.3° 71.0° 25.3% 7.5 MPH 354.3w/m2
06/06/2011 0.26" 0.21" 0.00" 0.21" 79.8° 57.4° 66.9° 23.4% 10.2 MPH 224.5w/m2
06/07/2011 0.20" 0.16" 0.01" 0.15" 68.9° 45.6° 59.1° 49.0% 5.8 MPH 303.3w/m2
06/08/2011 0.19" 0.15" 0.00" 0.15" 72.2° 50.1° 58.5° 58.3% 7.4 MPH 255.6w/m2
06/09/2011 0.18" 0.14" 0.00" 0.14" 63.9° 47.3° 55.6° 59.4% 7.7 MPH 281.4w/m2
06/10/2011 0.26" 0.21" 0.00" 0.21" 76.3° 44.5° 60.9° 40.6% 7.0 MPH 343.1w/m2
06/11/2011 0.18" 0.15" 0.00" 0.15" 73.9° 56.6° 64.5° 46.6% 5.5 MPH 226.9w/m2
06/12/2011 0.20" 0.16" 0.01" 0.15" 73.6° 54.9° 63.8° 54.2% 5.2 MPH 275.8w/m2
06/13/2011 0.21" 0.17" 0.02" 0.15" 73.2° 57.8° 64.0° 48.4% 7.5 MPH 259.0w/m2
06/14/2011 0.24" 0.19" 0.00" 0.19" 73.5° 54.5° 64.4° 52.5% 5.3 MPH 343.2w/m2
06/15/2011 0.28" 0.23" 0.00" 0.23" 84.0° 56.6° 70.5° 38.9% 7.7 MPH 329.1w/m2
06/16/2011 0.23" 0.18" 0.00" 0.18" 67.0° 52.9° 59.0° 46.0% 9.6 MPH 289.0w/m2
06/17/2011 0.25" 0.20" 0.00" 0.20" 68.2° 45.6° 58.2° 33.2% 6.1 MPH 356.4w/m2
06/18/2011 0.26" 0.21" 0.00" 0.21" 79.9° 51.7° 66.0° 33.0% 7.1 MPH 292.4w/m2
06/19/2011 0.07" 0.05" 0.56" -0.51" 63.5° 47.8° 52.6° 83.3% 6.6 MPH 105.0w/m2
06/20/2011 0.20" 0.16" 0.00" 0.16" 68.3° 48.2° 59.5° 61.5% 5.6 MPH 308.4w/m2
06/21/2011 0.26" 0.20" 0.00" 0.20" 76.7° 50.8° 65.8° 45.2% 5.9 MPH 350.4w/m2
06/22/2011 0.29" 0.23" 0.00" 0.23" 86.6° 55.9° 72.3° 38.0% 6.2 MPH 349.8w/m2
06/23/2011 0.31" 0.25" 0.00" 0.25" 89.8° 67.3° 78.5° 28.5% 8.9 MPH 282.4w/m2
06/24/2011 0.29" 0.23" 0.03" 0.20" 81.5° 61.3° 73.9° 37.2% 6.2 MPH 342.3w/m2
06/25/2011 0.28" 0.22" 0.00" 0.22" 84.3° 59.2° 71.9° 43.7% 6.6 MPH 342.0w/m2
06/26/2011 0.28" 0.22" 0.00" 0.22" 77.1° 58.8° 69.3° 38.5% 7.6 MPH 338.4w/m2
06/27/2011 0.29" 0.23" 0.00" 0.23" 88.5° 58.3° 73.6° 31.2% 6.0 MPH 345.5w/m2
06/28/2011 0.39" 0.31" 0.00" 0.31" 93.8° 66.8° 81.1° 18.6% 10.4 MPH 316.6w/m2
06/29/2011 0.31" 0.25" 0.00" 0.25" 90.4° 71.9° 79.2° 26.3% 10.2 MPH 219.2w/m2
06/30/2011 0.26" 0.21" 0.01" 0.20" 78.3° 61.7° 70.8° 41.7% 6.8 MPH 308.6w/m2
Totals: 7.36" 5.89" 0.66" 5.23" 93.8° 40.1° 65.4° 41.8% 7.3 MPH 296.8w/m2